Bluford, Illinois
Current Conditions -  °F | °C
As of 4:35 AM on Thursday 18 Dec 2014 (Local Time) from KMVN Reporting Station
Overcast Overcast  
Wind Chill: 28°   Ceiling: 7000
Heat Index: 28°   Visibility: 10mi
Dew Point: 21°   Wind: 3mph
Humidity: 74%   Direction: 60°ENE
Pressure: 30.27"   Gusts: NA
Location:  38.33°N, 88.73°W
Report Text: KMVN 181035Z AUTO 06003KT 10SM BKN070 OVC080 M02/M06 A3027 RMK AO1
Loading
Personal Weather Stations






























Interactive Weather Map New forecast layout! Learn more

10-Day Weather Forecast

Advertisements
Track Severe Weather on mobile